sensor_id;sensor_type;location;lat;lon;timestamp;pressure;altitude;pressure_sealevel;temperature;humidity
38452;BME280;24231;52.514;13.438;2023-05-20T00:02:14;102172.08;;;11.62;61.83
38452;BME280;24231;52.514;13.438;2023-05-20T00:04:41;102175.26;;;11.29;63.10
38452;BME280;24231;52.514;13.438;2023-05-20T00:07:08;102174.33;;;11.28;63.25
38452;BME280;24231;52.514;13.438;2023-05-20T00:09:38;102171.51;;;11.27;64.23
38452;BME280;24231;52.514;13.438;2023-05-20T00:12:06;102174.32;;;10.94;65.33
38452;BME280;24231;52.514;13.438;2023-05-20T00:14:33;102171.83;;;11.05;64.67
38452;BME280;24231;52.514;13.438;2023-05-20T00:17:01;102169.71;;;11.15;64.48
38452;BME280;24231;52.514;13.438;2023-05-20T00:19:28;102169.37;;;10.82;66.36
38452;BME280;24231;52.514;13.438;2023-05-20T00:21:55;102172.76;;;10.72;67.29
38452;BME280;24231;52.514;13.438;2023-05-20T00:24:23;102166.91;;;10.93;66.58
38452;BME280;24231;52.514;13.438;2023-05-20T00:26:49;102167.54;;;10.93;67.21
38452;BME280;24231;52.514;13.438;2023-05-20T00:29:17;102171.77;;;10.66;67.95
38452;BME280;24231;52.514;13.438;2023-05-20T00:31:44;102167.40;;;10.96;66.88
38452;BME280;24231;52.514;13.438;2023-05-20T00:34:11;102169.41;;;10.52;68.84
38452;BME280;24231;52.514;13.438;2023-05-20T00:36:39;102171.20;;;10.34;69.53
38452;BME280;24231;52.514;13.438;2023-05-20T00:39:06;102173.52;;;10.59;69.05
38452;BME280;24231;52.514;13.438;2023-05-20T00:41:33;102171.26;;;10.71;68.28
38452;BME280;24231;52.514;13.438;2023-05-20T00:44:01;102178.34;;;10.65;68.98
38452;BME280;24231;52.514;13.438;2023-05-20T00:46:29;102173.22;;;10.56;69.60
38452;BME280;24231;52.514;13.438;2023-05-20T00:48:56;102173.99;;;10.53;69.73
38452;BME280;24231;52.514;13.438;2023-05-20T00:51:24;102170.75;;;10.28;70.84
38452;BME280;24231;52.514;13.438;2023-05-20T00:53:52;102173.39;;;10.63;70.69
38452;BME280;24231;52.514;13.438;2023-05-20T00:56:20;102175.33;;;10.40;70.23
38452;BME280;24231;52.514;13.438;2023-05-20T00:58:47;102173.98;;;10.24;72.12
38452;BME280;24231;52.514;13.438;2023-05-20T01:01:15;102169.13;;;10.24;72.09
38452;BME280;24231;52.514;13.438;2023-05-20T01:03:42;102167.11;;;10.32;71.55
38452;BME280;24231;52.514;13.438;2023-05-20T01:06:09;102165.43;;;9.97;73.89
38452;BME280;24231;52.514;13.438;2023-05-20T01:08:36;102159.11;;;10.15;72.76
38452;BME280;24231;52.514;13.438;2023-05-20T01:11:08;102155.17;;;10.25;72.99
38452;BME280;24231;52.514;13.438;2023-05-20T01:13:41;102155.48;;;10.17;72.86
38452;BME280;24231;52.514;13.438;2023-05-20T01:16:10;102154.16;;;10.42;71.70
38452;BME280;24231;52.514;13.438;2023-05-20T01:18:38;102158.07;;;10.27;71.99
38452;BME280;24231;52.514;13.438;2023-05-20T01:21:10;102152.21;;;10.39;71.86
38452;BME280;24231;52.514;13.438;2023-05-20T01:23:38;102150.12;;;10.34;71.93
38452;BME280;24231;52.514;13.438;2023-05-20T01:26:06;102148.19;;;10.08;73.20
38452;BME280;24231;52.514;13.438;2023-05-20T01:28:34;102151.32;;;9.94;74.38
38452;BME280;24231;52.514;13.438;2023-05-20T01:31:04;102145.79;;;10.22;73.47
38452;BME280;24231;52.514;13.438;2023-05-20T01:33:35;102145.08;;;10.40;72.31
38452;BME280;24231;52.514;13.438;2023-05-20T01:36:05;102149.35;;;9.96;74.61
38452;BME280;24231;52.514;13.438;2023-05-20T01:38:32;102142.64;;;10.08;74.82
38452;BME280;24231;52.514;13.438;2023-05-20T01:41:04;102141.74;;;10.10;73.67
38452;BME280;24231;52.514;13.438;2023-05-20T01:43:31;102140.81;;;10.20;73.83
38452;BME280;24231;52.514;13.438;2023-05-20T01:45:58;102144.26;;;9.84;75.67
38452;BME280;24231;52.514;13.438;2023-05-20T01:48:26;102140.38;;;10.12;74.26
38452;BME280;24231;52.514;13.438;2023-05-20T01:50:53;102139.36;;;10.13;74.34
38452;BME280;24231;52.514;13.438;2023-05-20T01:53:21;102135.70;;;10.02;75.20
38452;BME280;24231;52.514;13.438;2023-05-20T01:55:48;102135.71;;;10.19;73.79
38452;BME280;24231;52.514;13.438;2023-05-20T01:58:16;102133.44;;;9.86;75.77
38452;BME280;24231;52.514;13.438;2023-05-20T02:00:43;102133.42;;;9.92;75.51
38452;BME280;24231;52.514;13.438;2023-05-20T02:03:10;102130.64;;;9.98;75.43
38452;BME280;24231;52.514;13.438;2023-05-20T02:05:37;102130.19;;;9.80;76.13
38452;BME280;24231;52.514;13.438;2023-05-20T02:08:05;102126.55;;;9.86;76.14
38452;BME280;24231;52.514;13.438;2023-05-20T02:10:32;102127.87;;;9.97;75.11
38452;BME280;24231;52.514;13.438;2023-05-20T02:12:59;102126.79;;;10.32;73.20
38452;BME280;24231;52.514;13.438;2023-05-20T02:15:27;102124.49;;;11.21;67.99
38452;BME280;24231;52.514;13.438;2023-05-20T02:17:54;102132.66;;;10.50;72.76
38452;BME280;24231;52.514;13.438;2023-05-20T02:20:21;102126.49;;;10.71;71.19
38452;BME280;24231;52.514;13.438;2023-05-20T02:22:49;102123.80;;;10.36;72.74
38452;BME280;24231;52.514;13.438;2023-05-20T02:25:16;102124.74;;;10.88;69.81
38452;BME280;24231;52.514;13.438;2023-05-20T02:27:43;102127.31;;;10.57;71.33
38452;BME280;24231;52.514;13.438;2023-05-20T02:30:11;102128.10;;;10.06;73.40
38452;BME280;24231;52.514;13.438;2023-05-20T02:32:38;102124.73;;;10.17;73.24
38452;BME280;24231;52.514;13.438;2023-05-20T02:35:06;102124.52;;;10.82;70.39
38452;BME280;24231;52.514;13.438;2023-05-20T02:37:32;102122.71;;;10.09;73.64
38452;BME280;24231;52.514;13.438;2023-05-20T02:40:00;102126.41;;;10.02;74.22
38452;BME280;24231;52.514;13.438;2023-05-20T02:42:27;102128.19;;;10.81;71.32
38452;BME280;24231;52.514;13.438;2023-05-20T02:44:54;102131.23;;;10.63;71.89
38452;BME280;24231;52.514;13.438;2023-05-20T02:47:22;102133.68;;;10.42;72.22
38452;BME280;24231;52.514;13.438;2023-05-20T02:49:49;102132.81;;;10.86;69.93
38452;BME280;24231;52.514;13.438;2023-05-20T02:52:16;102137.04;;;10.15;73.60
38452;BME280;24231;52.514;13.438;2023-05-20T02:54:43;102138.50;;;10.11;74.94
38452;BME280;24231;52.514;13.438;2023-05-20T02:57:10;102139.14;;;9.93;75.85
38452;BME280;24231;52.514;13.438;2023-05-20T02:59:38;102134.02;;;10.56;72.92
38452;BME280;24231;52.514;13.438;2023-05-20T03:02:05;102133.75;;;10.87;70.21
38452;BME280;24231;52.514;13.438;2023-05-20T03:04:32;102131.97;;;11.10;70.36
38452;BME280;24231;52.514;13.438;2023-05-20T03:07:00;102133.11;;;10.16;73.31
38452;BME280;24231;52.514;13.438;2023-05-20T03:09:27;102137.93;;;10.32;72.97
38452;BME280;24231;52.514;13.438;2023-05-20T03:11:54;102139.88;;;11.61;66.87
38452;BME280;24231;52.514;13.438;2023-05-20T03:14:22;102145.63;;;10.62;71.80
38452;BME280;24231;52.514;13.438;2023-05-20T03:16:49;102148.62;;;10.62;71.83
38452;BME280;24231;52.514;13.438;2023-05-20T03:19:16;102150.30;;;10.53;71.21
38452;BME280;24231;52.514;13.438;2023-05-20T03:21:43;102152.83;;;10.64;70.54
38452;BME280;24231;52.514;13.438;2023-05-20T03:24:11;102151.81;;;10.87;70.05
38452;BME280;24231;52.514;13.438;2023-05-20T03:26:38;102156.73;;;10.67;71.97
38452;BME280;24231;52.514;13.438;2023-05-20T03:29:05;102151.34;;;10.49;71.69
38452;BME280;24231;52.514;13.438;2023-05-20T03:31:32;102155.11;;;10.50;71.91
38452;BME280;24231;52.514;13.438;2023-05-20T03:34:00;102149.34;;;10.13;73.54
38452;BME280;24231;52.514;13.438;2023-05-20T03:36:27;102155.62;;;10.23;73.00
38452;BME280;24231;52.514;13.438;2023-05-20T03:38:54;102159.55;;;10.28;73.06
38452;BME280;24231;52.514;13.438;2023-05-20T03:41:22;102155.82;;;10.54;72.05
38452;BME280;24231;52.514;13.438;2023-05-20T03:43:49;102161.53;;;10.34;71.56
38452;BME280;24231;52.514;13.438;2023-05-20T03:46:16;102161.50;;;10.04;74.32
38452;BME280;24231;52.514;13.438;2023-05-20T03:48:43;102161.67;;;9.85;74.58
38452;BME280;24231;52.514;13.438;2023-05-20T03:51:11;102160.49;;;9.92;74.99
38452;BME280;24231;52.514;13.438;2023-05-20T03:53:38;102160.44;;;9.82;75.79
38452;BME280;24231;52.514;13.438;2023-05-20T03:56:05;102160.55;;;9.99;75.53
38452;BME280;24231;52.514;13.438;2023-05-20T03:58:32;102166.34;;;10.17;75.47
38452;BME280;24231;52.514;13.438;2023-05-20T04:00:59;102167.70;;;9.89;76.65
38452;BME280;24231;52.514;13.438;2023-05-20T04:04:50;102165.98;;;9.82;76.36
38452;BME280;24231;52.514;13.438;2023-05-20T04:07:18;102163.14;;;9.70;77.46
38452;BME280;24231;52.514;13.438;2023-05-20T04:09:45;102166.59;;;9.89;75.84
38452;BME280;24231;52.514;13.438;2023-05-20T04:12:12;102162.08;;;9.73;77.04
38452;BME280;24231;52.514;13.438;2023-05-20T04:14:44;102152.89;;;9.97;75.21
38452;BME280;24231;52.514;13.438;2023-05-20T04:17:16;102148.48;;;9.90;75.83
38452;BME280;24231;52.514;13.438;2023-05-20T04:19:43;102146.18;;;9.78;76.13
38452;BME280;24231;52.514;13.438;2023-05-20T04:22:10;102147.94;;;10.31;73.84
38452;BME280;24231;52.514;13.438;2023-05-20T04:24:37;102143.42;;;10.53;71.91
38452;BME280;24231;52.514;13.438;2023-05-20T04:27:05;102143.56;;;10.79;71.03
38452;BME280;24231;52.514;13.438;2023-05-20T04:29:39;102154.63;;;10.59;71.32
38452;BME280;24231;52.514;13.438;2023-05-20T04:32:07;102153.96;;;10.06;75.38
38452;BME280;24231;52.514;13.438;2023-05-20T04:34:34;102156.45;;;10.39;74.15
38452;BME280;24231;52.514;13.438;2023-05-20T04:37:01;102151.85;;;10.25;74.33
38452;BME280;24231;52.514;13.438;2023-05-20T04:39:29;102151.45;;;10.31;74.87
38452;BME280;24231;52.514;13.438;2023-05-20T04:41:56;102154.73;;;10.10;75.45
38452;BME280;24231;52.514;13.438;2023-05-20T04:44:23;102157.83;;;9.63;78.53
38452;BME280;24231;52.514;13.438;2023-05-20T04:46:50;102156.75;;;10.14;77.11
38452;BME280;24231;52.514;13.438;2023-05-20T04:49:17;102159.45;;;10.83;72.85
38452;BME280;24231;52.514;13.438;2023-05-20T04:51:44;102163.12;;;10.15;75.94
38452;BME280;24231;52.514;13.438;2023-05-20T04:54:11;102162.76;;;10.49;74.57
38452;BME280;24231;52.514;13.438;2023-05-20T04:56:39;102161.82;;;9.86;77.80
38452;BME280;24231;52.514;13.438;2023-05-20T04:59:07;102161.15;;;10.17;76.83
38452;BME280;24231;52.514;13.438;2023-05-20T05:01:34;102151.93;;;9.97;77.58
38452;BME280;24231;52.514;13.438;2023-05-20T05:04:01;102153.11;;;10.18;76.74
38452;BME280;24231;52.514;13.438;2023-05-20T05:06:28;102151.65;;;9.98;78.45
38452;BME280;24231;52.514;13.438;2023-05-20T05:08:56;102151.54;;;10.41;76.32
38452;BME280;24231;52.514;13.438;2023-05-20T05:11:24;102149.23;;;11.49;70.81
38452;BME280;24231;52.514;13.438;2023-05-20T05:13:51;102145.91;;;11.23;71.56
38452;BME280;24231;52.514;13.438;2023-05-20T05:16:18;102146.64;;;10.87;72.98
38452;BME280;24231;52.514;13.438;2023-05-20T05:18:45;102144.32;;;11.48;71.10
38452;BME280;24231;52.514;13.438;2023-05-20T05:21:12;102146.57;;;10.40;76.58
38452;BME280;24231;52.514;13.438;2023-05-20T05:23:39;102146.55;;;10.62;74.87
38452;BME280;24231;52.514;13.438;2023-05-20T05:26:07;102146.58;;;10.45;74.16
38452;BME280;24231;52.514;13.438;2023-05-20T05:28:35;102151.86;;;10.73;74.32
38452;BME280;24231;52.514;13.438;2023-05-20T05:31:02;102153.46;;;10.78;75.27
38452;BME280;24231;52.514;13.438;2023-05-20T05:33:29;102154.74;;;10.33;77.50
38452;BME280;24231;52.514;13.438;2023-05-20T05:35:56;102147.83;;;10.09;79.59
38452;BME280;24231;52.514;13.438;2023-05-20T05:38:23;102147.94;;;10.13;78.91
38452;BME280;24231;52.514;13.438;2023-05-20T05:40:51;102150.87;;;10.46;78.73
38452;BME280;24231;52.514;13.438;2023-05-20T05:43:19;102147.39;;;10.27;79.19
38452;BME280;24231;52.514;13.438;2023-05-20T05:45:46;102141.56;;;11.18;74.80
38452;BME280;24231;52.514;13.438;2023-05-20T05:48:13;102146.98;;;10.78;76.64
38452;BME280;24231;52.514;13.438;2023-05-20T05:50:43;102143.41;;;10.79;77.09
38452;BME280;24231;52.514;13.438;2023-05-20T05:53:10;102137.49;;;11.30;73.71
38452;BME280;24231;52.514;13.438;2023-05-20T05:55:37;102140.51;;;10.61;77.74
38452;BME280;24231;52.514;13.438;2023-05-20T05:58:05;102129.78;;;11.23;76.12
38452;BME280;24231;52.514;13.438;2023-05-20T06:00:32;102137.92;;;10.43;78.62
38452;BME280;24231;52.514;13.438;2023-05-20T06:02:59;102128.36;;;10.76;77.38
38452;BME280;24231;52.514;13.438;2023-05-20T06:05:32;102124.34;;;11.48;74.89
38452;BME280;24231;52.514;13.438;2023-05-20T06:08:00;102123.90;;;11.31;75.07
38452;BME280;24231;52.514;13.438;2023-05-20T06:10:26;102127.00;;;11.25;74.90
38452;BME280;24231;52.514;13.438;2023-05-20T06:12:53;102126.14;;;11.04;76.72
38452;BME280;24231;52.514;13.438;2023-05-20T06:15:21;102128.23;;;10.67;78.82
38452;BME280;24231;52.514;13.438;2023-05-20T06:17:48;102118.30;;;11.18;76.25
38452;BME280;24231;52.514;13.438;2023-05-20T06:20:15;102120.78;;;10.40;80.45
38452;BME280;24231;52.514;13.438;2023-05-20T06:22:42;102121.17;;;10.59;79.45
38452;BME280;24231;52.514;13.438;2023-05-20T06:25:10;102125.18;;;10.29;81.66
38452;BME280;24231;52.514;13.438;2023-05-20T06:27:37;102126.66;;;10.98;78.63
38452;BME280;24231;52.514;13.438;2023-05-20T06:30:05;102129.76;;;10.85;78.52
38452;BME280;24231;52.514;13.438;2023-05-20T06:32:33;102130.04;;;10.81;78.89
38452;BME280;24231;52.514;13.438;2023-05-20T06:35:01;102125.38;;;10.86;78.89
38452;BME280;24231;52.514;13.438;2023-05-20T06:37:28;102125.82;;;10.71;80.37
38452;BME280;24231;52.514;13.438;2023-05-20T06:39:55;102131.38;;;10.50;80.69
38452;BME280;24231;52.514;13.438;2023-05-20T06:42:23;102127.94;;;10.92;79.27
38452;BME280;24231;52.514;13.438;2023-05-20T06:44:50;102131.13;;;10.53;80.45
38452;BME280;24231;52.514;13.438;2023-05-20T06:47:17;102127.10;;;10.39;81.07
38452;BME280;24231;52.514;13.438;2023-05-20T06:49:45;102132.88;;;10.27;82.01
38452;BME280;24231;52.514;13.438;2023-05-20T06:52:12;102129.52;;;11.73;74.45
38452;BME280;24231;52.514;13.438;2023-05-20T06:54:39;102122.30;;;11.21;77.35
38452;BME280;24231;52.514;13.438;2023-05-20T06:57:07;102124.94;;;12.12;72.70
38452;BME280;24231;52.514;13.438;2023-05-20T06:59:36;102125.13;;;11.85;73.14
38452;BME280;24231;52.514;13.438;2023-05-20T07:02:04;102123.87;;;11.50;75.42
38452;BME280;24231;52.514;13.438;2023-05-20T07:04:30;102129.05;;;12.44;71.77
38452;BME280;24231;52.514;13.438;2023-05-20T07:06:58;102128.73;;;11.96;73.26
38452;BME280;24231;52.514;13.438;2023-05-20T07:09:24;102125.46;;;12.53;71.02
38452;BME280;24231;52.514;13.438;2023-05-20T07:11:52;102123.08;;;12.47;70.86
38452;BME280;24231;52.514;13.438;2023-05-20T07:14:19;102128.12;;;11.73;74.08
38452;BME280;24231;52.514;13.438;2023-05-20T07:16:46;102125.87;;;11.32;76.07
38452;BME280;24231;52.514;13.438;2023-05-20T07:19:13;102124.74;;;11.50;75.41
38452;BME280;24231;52.514;13.438;2023-05-20T07:21:41;102122.01;;;11.78;74.40
38452;BME280;24231;52.514;13.438;2023-05-20T07:24:08;102124.11;;;12.72;69.30
38452;BME280;24231;52.514;13.438;2023-05-20T07:26:35;102130.15;;;12.00;72.00
38452;BME280;24231;52.514;13.438;2023-05-20T07:29:02;102124.29;;;11.53;74.70
38452;BME280;24231;52.514;13.438;2023-05-20T07:31:29;102120.88;;;11.95;72.86
38452;BME280;24231;52.514;13.438;2023-05-20T07:33:57;102108.80;;;12.37;70.22
38452;BME280;24231;52.514;13.438;2023-05-20T07:36:25;102112.39;;;12.30;71.35
38452;BME280;24231;52.514;13.438;2023-05-20T07:38:53;102112.66;;;11.72;73.32
38452;BME280;24231;52.514;13.438;2023-05-20T07:41:20;102108.38;;;12.43;70.53
38452;BME280;24231;52.514;13.438;2023-05-20T07:43:48;102110.29;;;12.21;71.89
38452;BME280;24231;52.514;13.438;2023-05-20T07:46:21;102107.21;;;12.05;72.88
38452;BME280;24231;52.514;13.438;2023-05-20T07:48:47;102103.15;;;12.44;70.57
38452;BME280;24231;52.514;13.438;2023-05-20T07:51:15;102102.90;;;12.55;70.27
38452;BME280;24231;52.514;13.438;2023-05-20T07:53:42;102103.74;;;11.69;73.98
38452;BME280;24231;52.514;13.438;2023-05-20T07:56:10;102097.58;;;11.94;73.54
38452;BME280;24231;52.514;13.438;2023-05-20T07:58:40;102096.62;;;12.29;72.06
38452;BME280;24231;52.514;13.438;2023-05-20T08:01:07;102098.85;;;12.10;72.89
38452;BME280;24231;52.514;13.438;2023-05-20T08:03:35;102092.86;;;12.10;72.64
38452;BME280;24231;52.514;13.438;2023-05-20T08:06:01;102088.59;;;12.05;73.62
38452;BME280;24231;52.514;13.438;2023-05-20T08:08:29;102080.37;;;12.75;70.48
38452;BME280;24231;52.514;13.438;2023-05-20T08:10:56;102083.97;;;12.97;69.42
38452;BME280;24231;52.514;13.438;2023-05-20T08:13:23;102085.36;;;12.81;69.32
38452;BME280;24231;52.514;13.438;2023-05-20T08:15:52;102079.23;;;12.67;69.85
38452;BME280;24231;52.514;13.438;2023-05-20T08:18:19;102076.80;;;12.70;69.79
38452;BME280;24231;52.514;13.438;2023-05-20T08:20:46;102077.09;;;12.44;70.70
38452;BME280;24231;52.514;13.438;2023-05-20T08:23:13;102074.33;;;12.91;69.05
38452;BME280;24231;52.514;13.438;2023-05-20T08:25:41;102077.71;;;12.98;69.69
38452;BME280;24231;52.514;13.438;2023-05-20T08:28:09;102083.52;;;13.22;68.17
38452;BME280;24231;52.514;13.438;2023-05-20T08:30:36;102076.25;;;13.61;66.46
38452;BME280;24231;52.514;13.438;2023-05-20T08:33:03;102076.84;;;12.77;70.26
38452;BME280;24231;52.514;13.438;2023-05-20T08:35:31;102070.85;;;13.07;68.84
38452;BME280;24231;52.514;13.438;2023-05-20T08:38:00;102069.13;;;13.27;68.19
38452;BME280;24231;52.514;13.438;2023-05-20T08:40:27;102069.99;;;13.24;67.86
38452;BME280;24231;52.514;13.438;2023-05-20T08:42:55;102061.80;;;13.51;67.22
38452;BME280;24231;52.514;13.438;2023-05-20T08:45:23;102061.07;;;13.33;68.29
38452;BME280;24231;52.514;13.438;2023-05-20T08:47:52;102062.79;;;13.09;68.06
38452;BME280;24231;52.514;13.438;2023-05-20T08:50:20;102066.18;;;12.99;68.71
38452;BME280;24231;52.514;13.438;2023-05-20T08:52:48;102058.76;;;13.51;66.99
38452;BME280;24231;52.514;13.438;2023-05-20T08:55:17;102062.56;;;13.66;66.35
38452;BME280;24231;52.514;13.438;2023-05-20T08:57:45;102063.72;;;13.74;65.42
38452;BME280;24231;52.514;13.438;2023-05-20T09:00:14;102065.13;;;13.17;67.25
38452;BME280;24231;52.514;13.438;2023-05-20T09:02:44;102061.18;;;13.05;68.29
38452;BME280;24231;52.514;13.438;2023-05-20T09:05:11;102063.02;;;13.17;67.77
38452;BME280;24231;52.514;13.438;2023-05-20T09:07:40;102056.04;;;14.02;64.67
38452;BME280;24231;52.514;13.438;2023-05-20T09:10:08;102064.45;;;13.53;66.35
38452;BME280;24231;52.514;13.438;2023-05-20T09:12:36;102062.12;;;13.57;67.37
38452;BME280;24231;52.514;13.438;2023-05-20T09:15:04;102056.38;;;13.60;66.75
38452;BME280;24231;52.514;13.438;2023-05-20T09:17:31;102062.20;;;13.29;68.37
38452;BME280;24231;52.514;13.438;2023-05-20T09:19:58;102067.83;;;13.48;67.91
38452;BME280;24231;52.514;13.438;2023-05-20T09:22:27;102062.74;;;13.77;65.86
38452;BME280;24231;52.514;13.438;2023-05-20T09:24:55;102054.96;;;14.71;63.02
38452;BME280;24231;52.514;13.438;2023-05-20T09:27:22;102064.32;;;13.97;65.39
38452;BME280;24231;52.514;13.438;2023-05-20T09:29:49;102048.22;;;13.27;68.02
38452;BME280;24231;52.514;13.438;2023-05-20T09:32:20;102050.71;;;13.39;66.93
38452;BME280;24231;52.514;13.438;2023-05-20T09:34:57;102048.52;;;13.04;69.15
38452;BME280;24231;52.514;13.438;2023-05-20T09:37:25;102049.17;;;13.71;66.18
38452;BME280;24231;52.514;13.438;2023-05-20T09:39:55;102048.43;;;13.91;65.75
38452;BME280;24231;52.514;13.438;2023-05-20T09:42:25;102049.22;;;13.84;66.42
38452;BME280;24231;52.514;13.438;2023-05-20T09:44:54;102051.65;;;13.84;65.68
38452;BME280;24231;52.514;13.438;2023-05-20T09:47:22;102049.40;;;13.40;67.49
38452;BME280;24231;52.514;13.438;2023-05-20T09:49:51;102048.70;;;13.86;65.92
38452;BME280;24231;52.514;13.438;2023-05-20T09:52:18;102053.35;;;14.38;63.44
38452;BME280;24231;52.514;13.438;2023-05-20T09:54:47;102057.85;;;13.14;68.54
38452;BME280;24231;52.514;13.438;2023-05-20T09:57:16;102052.06;;;13.54;67.13
38452;BME280;24231;52.514;13.438;2023-05-20T09:59:44;102044.97;;;13.89;66.36
38452;BME280;24231;52.514;13.438;2023-05-20T10:02:13;102045.37;;;13.92;66.16
38452;BME280;24231;52.514;13.438;2023-05-20T10:04:44;102052.44;;;13.41;68.59
38452;BME280;24231;52.514;13.438;2023-05-20T10:07:30;102048.17;;;14.03;65.85
38452;BME280;24231;52.514;13.438;2023-05-20T10:10:10;102053.28;;;13.91;66.79
38452;BME280;24231;52.514;13.438;2023-05-20T10:12:52;102046.13;;;14.02;66.46
38452;BME280;24231;52.514;13.438;2023-05-20T10:15:25;102046.69;;;13.99;65.42
38452;BME280;24231;52.514;13.438;2023-05-20T10:18:00;102050.33;;;13.73;66.41
38452;BME280;24231;52.514;13.438;2023-05-20T10:20:30;102040.94;;;13.64;67.44
38452;BME280;24231;52.514;13.438;2023-05-20T10:22:57;102042.52;;;13.76;66.32
38452;BME280;24231;52.514;13.438;2023-05-20T10:25:25;102036.09;;;14.18;65.17
38452;BME280;24231;52.514;13.438;2023-05-20T10:28:04;102037.27;;;13.60;67.28
38452;BME280;24231;52.514;13.438;2023-05-20T10:30:34;102041.99;;;14.02;65.50
38452;BME280;24231;52.514;13.438;2023-05-20T10:33:04;102041.23;;;14.07;65.27
38452;BME280;24231;52.514;13.438;2023-05-20T10:35:31;102044.50;;;13.84;65.95
38452;BME280;24231;52.514;13.438;2023-05-20T10:38:08;102033.85;;;14.14;64.58
38452;BME280;24231;52.514;13.438;2023-05-20T10:40:36;102035.05;;;14.63;62.29
38452;BME280;24231;52.514;13.438;2023-05-20T10:43:12;102027.18;;;14.17;64.79
38452;BME280;24231;52.514;13.438;2023-05-20T10:45:48;102028.83;;;14.56;63.53
38452;BME280;24231;52.514;13.438;2023-05-20T10:48:31;102022.20;;;14.18;64.71
38452;BME280;24231;52.514;13.438;2023-05-20T10:50:59;102012.70;;;14.80;63.03
38452;BME280;24231;52.514;13.438;2023-05-20T10:53:27;102010.77;;;14.53;62.99
38452;BME280;24231;52.514;13.438;2023-05-20T10:55:54;102007.22;;;14.80;61.78
38452;BME280;24231;52.514;13.438;2023-05-20T10:58:22;102006.03;;;15.34;59.69
38452;BME280;24231;52.514;13.438;2023-05-20T11:00:52;102004.52;;;14.78;61.58
38452;BME280;24231;52.514;13.438;2023-05-20T11:03:21;102001.70;;;15.05;61.15
38452;BME280;24231;52.514;13.438;2023-05-20T11:05:49;102008.88;;;14.57;61.50
38452;BME280;24231;52.514;13.438;2023-05-20T11:08:17;101996.66;;;14.85;62.07
38452;BME280;24231;52.514;13.438;2023-05-20T11:10:44;101996.88;;;14.83;62.34
38452;BME280;24231;52.514;13.438;2023-05-20T11:13:12;101997.60;;;15.05;61.26
38452;BME280;24231;52.514;13.438;2023-05-20T11:15:41;101988.36;;;15.18;59.72
38452;BME280;24231;52.514;13.438;2023-05-20T11:18:10;101992.02;;;14.55;62.72
38452;BME280;24231;52.514;13.438;2023-05-20T11:20:37;101999.38;;;14.96;60.84
38452;BME280;24231;52.514;13.438;2023-05-20T11:23:05;101991.84;;;15.04;60.84
38452;BME280;24231;52.514;13.438;2023-05-20T11:25:34;101989.14;;;15.38;59.52
38452;BME280;24231;52.514;13.438;2023-05-20T11:28:01;101978.67;;;15.26;60.91
38452;BME280;24231;52.514;13.438;2023-05-20T11:30:29;101979.73;;;14.90;62.29
38452;BME280;24231;52.514;13.438;2023-05-20T11:32:58;101986.26;;;15.22;60.82
38452;BME280;24231;52.514;13.438;2023-05-20T11:35:26;101987.14;;;15.18;61.08
38452;BME280;24231;52.514;13.438;2023-05-20T11:37:55;101971.89;;;15.47;59.98
38452;BME280;24231;52.514;13.438;2023-05-20T11:40:24;101973.82;;;15.12;61.15
38452;BME280;24231;52.514;13.438;2023-05-20T11:42:53;101978.44;;;15.16;61.97
38452;BME280;24231;52.514;13.438;2023-05-20T11:45:20;101983.09;;;15.08;61.40
38452;BME280;24231;52.514;13.438;2023-05-20T11:47:58;101981.25;;;15.37;60.83
38452;BME280;24231;52.514;13.438;2023-05-20T11:50:26;101981.72;;;15.31;60.32
38452;BME280;24231;52.514;13.438;2023-05-20T11:52:57;101974.96;;;14.86;62.70
38452;BME280;24231;52.514;13.438;2023-05-20T11:55:25;101977.04;;;15.36;60.39
38452;BME280;24231;52.514;13.438;2023-05-20T11:57:53;101977.81;;;14.85;65.83
38452;BME280;24231;52.514;13.438;2023-05-20T12:00:21;101974.05;;;14.91;62.13
38452;BME280;24231;52.514;13.438;2023-05-20T12:02:48;101973.24;;;15.10;62.47
38452;BME280;24231;52.514;13.438;2023-05-20T12:05:15;101978.33;;;15.41;60.78
38452;BME280;24231;52.514;13.438;2023-05-20T12:07:43;101962.09;;;15.97;59.03
38452;BME280;24231;52.514;13.438;2023-05-20T12:10:10;101955.37;;;16.30;57.81
38452;BME280;24231;52.514;13.438;2023-05-20T12:12:38;101942.93;;;16.67;56.51
38452;BME280;24231;52.514;13.438;2023-05-20T12:15:06;101940.47;;;16.49;57.45
38452;BME280;24231;52.514;13.438;2023-05-20T12:17:44;101943.13;;;16.90;55.99
38452;BME280;24231;52.514;13.438;2023-05-20T12:20:13;101946.46;;;16.25;57.73
38452;BME280;24231;52.514;13.438;2023-05-20T12:22:41;101950.87;;;15.43;60.75
38452;BME280;24231;52.514;13.438;2023-05-20T12:25:10;101932.52;;;16.34;58.42
38452;BME280;24231;52.514;13.438;2023-05-20T12:27:38;101922.19;;;16.46;57.31
38452;BME280;24231;52.514;13.438;2023-05-20T12:30:06;101935.38;;;15.68;59.90
38452;BME280;24231;52.514;13.438;2023-05-20T12:32:34;101933.64;;;15.39;61.11
38452;BME280;24231;52.514;13.438;2023-05-20T12:35:01;101912.80;;;15.91;59.46
38452;BME280;24231;52.514;13.438;2023-05-20T12:37:29;101908.01;;;16.41;57.30
38452;BME280;24231;52.514;13.438;2023-05-20T12:39:56;101927.69;;;15.78;58.80
38452;BME280;24231;52.514;13.438;2023-05-20T12:42:23;101931.39;;;15.31;60.70
38452;BME280;24231;52.514;13.438;2023-05-20T12:44:50;101921.26;;;16.27;57.69
38452;BME280;24231;52.514;13.438;2023-05-20T12:47:19;101917.62;;;15.75;59.74